createdAt,value
2022-12-14T00:01:55.593Z,39.05
2022-12-14T00:04:23.549Z,33.22
2022-12-14T00:06:51.695Z,33.63
2022-12-14T00:09:19.509Z,37.58
2022-12-14T00:11:47.751Z,36.35
2022-12-14T00:14:15.722Z,35.10
2022-12-14T00:16:43.983Z,32.17
2022-12-14T00:19:15.579Z,35.80
2022-12-14T00:21:44.155Z,41.60
2022-12-14T00:24:12.179Z,38.65
2022-12-14T00:26:42.490Z,30.35
2022-12-14T00:29:10.623Z,39.42
2022-12-14T00:31:38.478Z,36.88
2022-12-14T00:34:06.680Z,38.40
2022-12-14T00:36:37.717Z,40.80
2022-12-14T00:39:06.410Z,33.55
2022-12-14T00:41:34.340Z,31.95
2022-12-14T00:44:02.130Z,30.55
2022-12-14T00:46:30.408Z,33.83
2022-12-14T00:48:58.334Z,35.30
2022-12-14T00:51:27.951Z,34.95
2022-12-14T00:53:57.138Z,35.65
2022-12-14T00:56:25.480Z,33.42
2022-12-14T00:58:54.095Z,40.35
2022-12-14T01:01:23.594Z,45.40
2022-12-14T01:04:12.148Z,47.67
2022-12-14T01:06:39.924Z,44.92
2022-12-14T01:09:09.240Z,40.83
2022-12-14T01:11:37.493Z,40.35
2022-12-14T01:14:05.367Z,36.40
2022-12-14T01:16:33.577Z,37.72
2022-12-14T01:19:02.692Z,35.90
2022-12-14T01:21:30.518Z,31.60
2022-12-14T01:23:59.921Z,35.20
2022-12-14T01:26:33.809Z,37.58
2022-12-14T01:29:01.722Z,37.17
2022-12-14T01:31:32.310Z,37.10
2022-12-14T01:34:00.774Z,36.75
2022-12-14T01:36:31.332Z,37.70
2022-12-14T01:39:00.926Z,33.25
2022-12-14T01:41:32.965Z,34.90
2022-12-14T01:44:03.075Z,39.60
2022-12-14T01:46:35.710Z,35.25
2022-12-14T01:49:09.194Z,35.33
2022-12-14T01:51:38.494Z,35.10
2022-12-14T01:54:10.668Z,36.60
2022-12-14T01:56:43.808Z,37.70
2022-12-14T01:59:16.822Z,36.58
2022-12-14T02:01:45.338Z,40.67
2022-12-14T02:04:20.399Z,38.72
2022-12-14T02:06:54.129Z,44.65
2022-12-14T02:09:34.318Z,37.60
2022-12-14T02:12:09.662Z,41.20
2022-12-14T02:14:38.972Z,39.17
2022-12-14T02:17:08.336Z,37.85
2022-12-14T02:19:37.563Z,34.00
2022-12-14T02:22:27.006Z,30.35
2022-12-14T02:25:16.162Z,27.88
2022-12-14T02:27:56.195Z,32.35
2022-12-14T02:30:27.308Z,33.95
2022-12-14T02:33:14.389Z,34.10
2022-12-14T02:35:47.433Z,31.42
2022-12-14T02:38:29.043Z,31.02
2022-12-14T02:41:06.507Z,34.80
2022-12-14T02:43:42.631Z,33.28
2022-12-14T02:46:20.692Z,35.53
2022-12-14T02:48:51.408Z,33.00
2022-12-14T02:51:25.637Z,37.88
2022-12-14T02:54:01.984Z,39.23
2022-12-14T02:56:37.249Z,32.92
2022-12-14T02:59:08.986Z,34.50
2022-12-14T03:01:40.988Z,35.88
2022-12-14T03:04:09.401Z,33.95
2022-12-14T03:06:38.060Z,36.13
2022-12-14T03:09:08.806Z,28.85
2022-12-14T03:11:46.112Z,38.42
2022-12-14T03:14:19.791Z,31.17
2022-12-14T03:16:54.222Z,35.97
2022-12-14T03:19:25.898Z,35.17
2022-12-14T03:21:59.138Z,36.13
2022-12-14T03:24:31.044Z,29.73
2022-12-14T03:27:06.365Z,30.02
2022-12-14T03:29:40.936Z,33.25
2022-12-14T03:32:13.748Z,30.30
2022-12-14T03:34:49.760Z,33.40
2022-12-14T03:37:22.491Z,34.53
2022-12-14T03:39:51.267Z,30.60
2022-12-14T03:42:24.192Z,33.95
2022-12-14T03:45:01.143Z,28.73
2022-12-14T03:47:51.551Z,33.90
2022-12-14T03:50:26.006Z,33.45
2022-12-14T03:52:59.668Z,32.78
2022-12-14T03:55:34.715Z,35.20
2022-12-14T04:00:50.506Z,36.03
2022-12-14T04:03:29.121Z,31.83
2022-12-14T04:06:03.932Z,32.22
2022-12-14T04:08:40.063Z,34.70
2022-12-14T04:11:29.027Z,31.80
2022-12-14T04:14:20.912Z,34.00
2022-12-14T04:17:09.080Z,35.05
2022-12-14T04:19:44.291Z,30.38
2022-12-14T04:22:21.037Z,33.72
2022-12-14T04:25:12.615Z,37.10
2022-12-14T04:27:45.602Z,29.88
2022-12-14T04:30:15.140Z,32.90
2022-12-14T04:32:48.040Z,35.08
2022-12-14T04:35:21.810Z,33.28
2022-12-14T04:37:54.115Z,36.85
2022-12-14T04:40:26.368Z,33.85
2022-12-14T04:42:57.734Z,36.55
2022-12-14T04:45:31.664Z,34.25
2022-12-14T04:48:09.535Z,34.22
2022-12-14T04:50:44.374Z,31.95
2022-12-14T04:53:14.963Z,31.90
2022-12-14T04:55:51.174Z,38.17
2022-12-14T04:58:23.193Z,37.13
2022-12-14T05:01:05.268Z,30.48
2022-12-14T05:03:37.120Z,30.92
2022-12-14T05:06:14.343Z,32.92
2022-12-14T05:09:05.345Z,38.80
2022-12-14T05:11:57.205Z,37.10
2022-12-14T05:14:35.419Z,36.35
2022-12-14T05:17:08.771Z,32.75
2022-12-14T05:19:37.791Z,32.45
2022-12-14T05:22:10.111Z,31.02
2022-12-14T05:24:38.598Z,33.28
2022-12-14T05:27:07.885Z,34.72
2022-12-14T05:29:36.348Z,32.10
2022-12-14T05:32:05.081Z,33.55
2022-12-14T05:34:34.374Z,34.05
2022-12-14T05:37:02.681Z,32.97
2022-12-14T05:39:32.497Z,35.17
2022-12-14T05:42:00.508Z,31.65
2022-12-14T05:44:28.645Z,35.20
2022-12-14T05:46:57.185Z,35.55
2022-12-14T05:49:25.286Z,32.05
2022-12-14T05:51:53.702Z,34.97
2022-12-14T05:54:21.648Z,29.38
2022-12-14T05:56:51.700Z,37.53
2022-12-14T05:59:20.409Z,32.05
2022-12-14T06:01:50.691Z,33.83
2022-12-14T06:04:21.303Z,29.05
2022-12-14T06:06:50.611Z,30.33
2022-12-14T06:09:20.342Z,33.42
2022-12-14T06:11:49.697Z,35.30
2022-12-14T06:14:19.369Z,31.75
2022-12-14T06:16:48.463Z,35.42
2022-12-14T06:19:17.338Z,33.05
2022-12-14T06:21:46.089Z,36.88
2022-12-14T06:24:15.916Z,32.10
2022-12-14T06:26:44.582Z,35.42
2022-12-14T06:29:18.322Z,32.63
2022-12-14T06:31:49.389Z,36.83
2022-12-14T06:34:21.292Z,32.92
2022-12-14T06:39:21.492Z,34.72
2022-12-14T06:41:52.237Z,34.67
2022-12-14T06:44:20.590Z,33.00
2022-12-14T06:46:50.529Z,31.92
2022-12-14T06:49:19.262Z,34.88
2022-12-14T06:51:47.441Z,36.05
2022-12-14T06:54:16.847Z,31.30
2022-12-14T06:56:46.361Z,30.63
2022-12-14T06:59:14.499Z,35.83
2022-12-14T07:01:43.352Z,32.75
2022-12-14T07:04:13.295Z,34.25
2022-12-14T07:06:42.450Z,33.15
2022-12-14T07:09:14.175Z,31.73
2022-12-14T07:11:43.338Z,29.83
2022-12-14T07:14:16.128Z,32.42
2022-12-14T07:16:48.359Z,31.13
2022-12-14T07:19:19.060Z,32.90
2022-12-14T07:21:47.390Z,32.38
2022-12-14T07:24:15.462Z,32.05
2022-12-14T07:26:43.489Z,32.33
2022-12-14T07:29:11.950Z,34.30
2022-12-14T07:31:40.145Z,39.28
2022-12-14T07:34:08.011Z,35.92
2022-12-14T07:36:36.978Z,32.35
2022-12-14T07:39:05.355Z,33.63
2022-12-14T07:41:33.203Z,33.33
2022-12-14T07:44:02.350Z,34.15
2022-12-14T07:46:32.070Z,30.45
2022-12-14T07:49:01.101Z,35.65
2022-12-14T07:51:30.677Z,36.28
2022-12-14T07:54:02.587Z,35.58
2022-12-14T07:56:32.066Z,55.50
2022-12-14T08:01:50.676Z,37.50
2022-12-14T08:04:20.312Z,41.88
2022-12-14T08:06:50.537Z,31.00
2022-12-14T08:09:20.803Z,34.67
2022-12-14T08:11:49.242Z,40.30
2022-12-14T08:14:19.296Z,37.20
2022-12-14T08:16:48.671Z,37.13
2022-12-14T08:19:17.643Z,33.45
2022-12-14T08:21:46.903Z,33.63
2022-12-14T08:24:15.969Z,42.72
2022-12-14T08:26:49.182Z,42.33
2022-12-14T08:29:18.380Z,32.90
2022-12-14T08:31:47.268Z,35.70
2022-12-14T08:34:15.846Z,35.17
2022-12-14T08:36:43.509Z,35.58
2022-12-14T08:39:11.892Z,37.13
2022-12-14T08:41:39.608Z,33.72
2022-12-14T08:44:08.876Z,32.47
2022-12-14T08:46:39.211Z,33.88
2022-12-14T08:49:07.100Z,34.50
2022-12-14T08:51:39.007Z,41.47
2022-12-14T08:54:06.960Z,41.92
2022-12-14T08:56:34.632Z,38.53
2022-12-14T08:59:02.713Z,35.92
2022-12-14T09:01:34.680Z,37.00
2022-12-14T09:04:05.424Z,38.08
2022-12-14T09:06:38.366Z,40.08
2022-12-14T09:09:15.237Z,33.97
2022-12-14T09:11:43.860Z,37.83
2022-12-14T09:14:13.307Z,41.03
2022-12-14T09:16:42.908Z,37.30
2022-12-14T09:19:11.076Z,36.50
2022-12-14T09:21:40.144Z,38.38
2022-12-14T09:24:08.124Z,34.47
2022-12-14T09:26:36.141Z,41.38
2022-12-14T09:29:04.525Z,40.33
2022-12-14T09:31:32.223Z,40.78
2022-12-14T09:34:01.308Z,38.83
2022-12-14T09:36:29.827Z,35.83
2022-12-14T09:38:59.318Z,34.13
2022-12-14T09:41:46.871Z,34.45
2022-12-14T09:44:27.338Z,44.00
2022-12-14T09:47:03.864Z,35.58
2022-12-14T09:49:36.206Z,35.30
2022-12-14T09:52:06.769Z,37.03
2022-12-14T09:54:38.334Z,33.38
2022-12-14T09:57:12.259Z,33.45
2022-12-14T09:59:40.133Z,37.85
2022-12-14T10:02:32.015Z,39.25
2022-12-14T10:05:20.226Z,36.42
2022-12-14T10:07:56.089Z,30.02
2022-12-14T10:10:30.318Z,39.13
2022-12-14T10:13:07.561Z,34.67
2022-12-14T10:15:42.235Z,35.50
2022-12-14T10:18:58.139Z,37.97
2022-12-14T10:21:25.023Z,36.75
2022-12-14T10:23:57.466Z,32.85
2022-12-14T10:26:33.874Z,34.88
2022-12-14T10:29:05.084Z,34.58
2022-12-14T10:31:41.113Z,36.03
2022-12-14T10:34:19.343Z,34.97
2022-12-14T10:36:55.065Z,30.67
2022-12-14T10:39:30.805Z,40.85
2022-12-14T10:42:03.928Z,33.83
2022-12-14T10:44:41.064Z,41.42
2022-12-14T10:47:15.343Z,36.20
2022-12-14T10:49:50.543Z,25.60
2022-12-14T10:54:54.037Z,30.85
2022-12-14T10:57:24.827Z,36.67
2022-12-14T11:00:07.947Z,31.42
2022-12-14T11:02:41.685Z,33.95
2022-12-14T11:05:23.888Z,35.30
2022-12-14T11:07:53.669Z,35.95
2022-12-14T11:10:24.651Z,37.30
2022-12-14T11:13:01.339Z,34.42
2022-12-14T11:15:33.326Z,36.53
2022-12-14T11:18:05.084Z,33.92
2022-12-14T11:20:34.891Z,32.13
2022-12-14T11:23:21.252Z,36.35
2022-12-14T11:25:51.893Z,34.08
2022-12-14T11:28:36.141Z,40.35
2022-12-14T11:31:08.002Z,32.55
2022-12-14T11:33:39.130Z,34.15
2022-12-14T11:36:08.928Z,37.38
2022-12-14T11:38:38.433Z,34.88
2022-12-14T11:41:11.543Z,33.80
2022-12-14T11:43:41.552Z,32.35
2022-12-14T11:46:09.720Z,38.38
2022-12-14T11:48:39.421Z,34.38
2022-12-14T11:51:12.666Z,33.30
2022-12-14T11:53:42.603Z,34.65
2022-12-14T11:56:16.293Z,39.13
2022-12-14T11:58:51.163Z,41.13
2022-12-14T12:01:24.653Z,34.78
2022-12-14T12:03:57.424Z,33.30
2022-12-14T12:06:28.960Z,37.97
2022-12-14T12:09:01.001Z,38.30
2022-12-14T12:11:32.910Z,40.85
2022-12-14T12:14:03.532Z,36.55
2022-12-14T12:16:33.505Z,42.40
2022-12-14T12:19:11.757Z,37.05
2022-12-14T12:21:43.004Z,42.47
2022-12-14T12:24:18.877Z,45.80
2022-12-14T12:26:51.249Z,41.35
2022-12-14T12:29:26.677Z,45.58
2022-12-14T12:31:59.844Z,49.58
2022-12-14T12:34:33.040Z,43.80
2022-12-14T12:40:01.112Z,51.53
2022-12-14T12:42:42.041Z,47.78
2022-12-14T12:45:20.444Z,41.33
2022-12-14T12:47:52.764Z,42.83
2022-12-14T12:50:23.925Z,40.75
2022-12-14T12:53:03.146Z,42.95
2022-12-14T12:55:39.568Z,43.03
2022-12-14T12:58:10.653Z,59.92
2022-12-14T13:00:41.537Z,39.15
2022-12-14T13:03:15.298Z,39.10
2022-12-14T13:05:46.659Z,40.25
2022-12-14T13:08:27.122Z,33.10
2022-12-14T13:13:52.462Z,37.78
2022-12-14T13:16:27.385Z,45.33
2022-12-14T13:19:40.506Z,48.80
2022-12-14T13:21:53.038Z,38.90
2022-12-14T13:24:24.376Z,42.05
2022-12-14T13:27:28.426Z,51.10
2022-12-14T13:30:17.428Z,50.30
2022-12-14T13:32:59.852Z,45.50
2022-12-14T13:35:42.652Z,45.88
2022-12-14T13:38:33.138Z,50.97
2022-12-14T13:41:28.145Z,47.00
2022-12-14T13:44:33.572Z,42.58
2022-12-14T13:47:06.852Z,46.85
2022-12-14T13:49:36.156Z,45.00
2022-12-14T13:52:04.351Z,50.28
2022-12-14T13:54:35.777Z,42.42
2022-12-14T13:57:06.897Z,55.78
2022-12-14T13:59:41.153Z,43.28
2022-12-14T14:02:41.237Z,46.43
2022-12-14T14:05:45.773Z,39.20
2022-12-14T14:08:39.268Z,41.50
2022-12-14T14:11:42.013Z,40.15
2022-12-14T14:14:22.887Z,39.95
2022-12-14T14:16:57.575Z,38.83
2022-12-14T14:19:27.592Z,35.28
2022-12-14T14:25:09.618Z,46.30
2022-12-14T14:30:26.225Z,49.85
2022-12-14T14:33:19.933Z,55.00
2022-12-14T14:35:49.531Z,58.90
2022-12-14T14:38:27.703Z,45.00
2022-12-14T14:41:16.655Z,39.83
2022-12-14T14:43:50.135Z,49.30
2022-12-14T14:46:22.771Z,46.03
2022-12-14T14:48:54.900Z,45.55
2022-12-14T14:51:26.866Z,48.83
2022-12-14T14:57:34.957Z,42.05
2022-12-14T15:00:04.192Z,40.60
2022-12-14T15:02:34.651Z,44.55
2022-12-14T15:05:40.240Z,39.83
2022-12-14T15:07:55.973Z,48.80
2022-12-14T15:10:29.764Z,43.67
2022-12-14T15:13:02.809Z,37.70
2022-12-14T15:15:37.224Z,43.42
2022-12-14T15:18:22.983Z,43.60
2022-12-14T15:21:01.014Z,37.85
2022-12-14T15:23:35.239Z,43.45
2022-12-14T15:26:05.585Z,43.43
2022-12-14T15:28:33.273Z,48.95
2022-12-14T15:31:01.595Z,127.88
2022-12-14T15:33:33.230Z,250.02
2022-12-14T15:36:09.255Z,91.05
2022-12-14T15:38:38.193Z,57.30
2022-12-14T15:41:13.600Z,47.25
2022-12-14T15:43:45.757Z,36.90
2022-12-14T15:46:19.383Z,41.67
2022-12-14T15:48:47.188Z,39.72
2022-12-14T15:51:19.737Z,36.22
2022-12-14T15:53:50.318Z,38.85
2022-12-14T15:56:24.909Z,38.50
2022-12-14T15:58:54.378Z,38.90
2022-12-14T16:01:26.479Z,35.55
2022-12-14T16:03:56.304Z,37.72
2022-12-14T16:06:30.187Z,33.95
2022-12-14T16:09:03.537Z,41.28
2022-12-14T16:11:37.438Z,42.15
2022-12-14T16:14:18.208Z,40.47
2022-12-14T16:16:46.818Z,39.47
2022-12-14T16:19:27.253Z,49.80
2022-12-14T16:22:14.913Z,36.10
2022-12-14T16:24:59.038Z,35.88
2022-12-14T16:27:28.046Z,39.60
2022-12-14T16:30:08.022Z,43.42
2022-12-14T16:32:36.235Z,38.97
2022-12-14T16:35:04.397Z,37.92
2022-12-14T16:37:34.461Z,37.70
2022-12-14T16:40:02.889Z,40.53
2022-12-14T16:42:33.862Z,41.00
2022-12-14T16:45:02.132Z,40.13
2022-12-14T16:48:04.747Z,32.17
2022-12-14T16:50:55.607Z,43.22
2022-12-14T16:53:26.264Z,39.75
2022-12-14T16:56:02.161Z,33.97
2022-12-14T16:58:30.576Z,36.53
2022-12-14T17:01:00.873Z,37.35
2022-12-14T17:03:32.366Z,37.65
2022-12-14T17:06:03.166Z,40.70
2022-12-14T17:08:35.273Z,38.05
2022-12-14T17:11:03.311Z,37.92
2022-12-14T17:13:31.484Z,43.28
2022-12-14T17:16:02.542Z,44.95
2022-12-14T17:18:34.501Z,38.78
2022-12-14T17:21:03.454Z,37.45
2022-12-14T17:23:33.950Z,41.53
2022-12-14T17:26:02.506Z,38.80
2022-12-14T17:28:32.845Z,38.95
2022-12-14T17:31:02.325Z,42.42
2022-12-14T17:33:32.628Z,38.53
2022-12-14T17:36:01.432Z,41.05
2022-12-14T17:38:29.278Z,36.60
2022-12-14T17:40:59.190Z,45.50
2022-12-14T17:43:28.603Z,48.95
2022-12-14T17:46:01.474Z,40.03
2022-12-14T17:48:29.642Z,39.90
2022-12-14T17:50:57.955Z,40.55
2022-12-14T17:53:30.557Z,45.45
2022-12-14T17:56:00.135Z,42.17
2022-12-14T17:58:27.928Z,40.38
2022-12-14T18:01:02.162Z,43.58
2022-12-14T18:03:32.185Z,40.28
2022-12-14T18:06:01.250Z,47.30
2022-12-14T18:08:29.207Z,50.45
2022-12-14T18:11:00.797Z,41.67
2022-12-14T18:13:31.911Z,42.78
2022-12-14T18:16:00.603Z,42.42
2022-12-14T18:18:30.010Z,44.83
2022-12-14T18:21:00.336Z,47.90
2022-12-14T18:23:29.719Z,45.38
2022-12-14T18:26:03.137Z,40.38
2022-12-14T18:28:31.063Z,45.33
2022-12-14T18:31:03.751Z,47.42
2022-12-14T18:33:34.088Z,44.83
2022-12-14T18:36:02.626Z,46.08
2022-12-14T18:38:30.792Z,41.65
2022-12-14T18:41:01.725Z,44.53
2022-12-14T18:43:30.665Z,41.78
2022-12-14T18:46:00.190Z,40.40
2022-12-14T18:48:28.676Z,52.05
2022-12-14T18:50:57.069Z,38.15
2022-12-14T18:53:26.654Z,40.42
2022-12-14T18:55:55.094Z,41.35
2022-12-14T18:58:26.674Z,45.15
2022-12-14T19:00:56.669Z,45.20
2022-12-14T19:03:26.917Z,45.90
2022-12-14T19:06:34.929Z,45.30
2022-12-14T19:08:52.834Z,39.45
2022-12-14T19:11:29.810Z,49.25
2022-12-14T19:13:59.735Z,43.88
2022-12-14T19:16:28.573Z,44.08
2022-12-14T19:18:56.742Z,44.33
2022-12-14T19:21:25.987Z,46.55
2022-12-14T19:23:54.474Z,48.00
2022-12-14T19:26:22.423Z,47.78
2022-12-14T19:28:50.765Z,48.20
2022-12-14T19:31:20.664Z,45.38
2022-12-14T19:33:48.998Z,50.65
2022-12-14T19:36:17.048Z,43.90
2022-12-14T19:38:49.124Z,45.47
2022-12-14T19:41:20.942Z,50.92
2022-12-14T19:43:49.512Z,44.95
2022-12-14T19:46:18.575Z,46.80
2022-12-14T19:48:47.847Z,49.00
2022-12-14T19:51:19.787Z,45.03
2022-12-14T19:53:47.910Z,51.83
2022-12-14T19:56:18.284Z,44.83
2022-12-14T19:58:47.735Z,49.65
2022-12-14T20:01:18.820Z,47.60
2022-12-14T20:03:49.560Z,52.97
2022-12-14T20:06:20.411Z,50.10
2022-12-14T20:08:49.475Z,47.08
2022-12-14T20:11:18.221Z,45.92
2022-12-14T20:13:45.999Z,50.28
2022-12-14T20:16:17.283Z,54.33
2022-12-14T20:18:45.742Z,51.17
2022-12-14T20:21:21.919Z,50.33
2022-12-14T20:23:55.185Z,43.22
2022-12-14T20:26:23.792Z,44.90
2022-12-14T20:28:53.154Z,48.03
2022-12-14T20:31:22.886Z,42.60
2022-12-14T20:33:51.333Z,45.40
2022-12-14T20:36:22.613Z,47.30
2022-12-14T20:38:55.170Z,45.92
2022-12-14T20:41:23.614Z,45.30
2022-12-14T20:43:51.684Z,41.05
2022-12-14T20:46:29.879Z,49.45
2022-12-14T20:48:58.441Z,47.15
2022-12-14T20:51:30.407Z,46.60
2022-12-14T20:53:58.588Z,42.22
2022-12-14T20:56:28.696Z,50.88
2022-12-14T20:58:57.613Z,46.15
2022-12-14T21:01:25.844Z,47.67
2022-12-14T21:03:54.782Z,43.00
2022-12-14T21:06:24.197Z,44.90
2022-12-14T21:09:12.120Z,42.35
2022-12-14T21:12:00.337Z,42.50
2022-12-14T21:14:30.522Z,42.38
2022-12-14T21:16:58.705Z,51.17
2022-12-14T21:19:28.857Z,49.72
2022-12-14T21:21:58.008Z,43.05
2022-12-14T21:27:20.294Z,41.42
2022-12-14T21:29:49.293Z,39.45
2022-12-14T21:32:18.295Z,45.45
2022-12-14T21:34:47.479Z,49.97
2022-12-14T21:37:15.688Z,56.65
2022-12-14T21:39:52.353Z,77.22
2022-12-14T21:42:23.685Z,71.38
2022-12-14T21:44:52.766Z,86.82
2022-12-14T21:47:23.312Z,83.63
2022-12-14T21:49:51.160Z,77.35
2022-12-14T21:52:21.708Z,74.00
2022-12-14T21:54:51.634Z,69.30
2022-12-14T21:57:41.030Z,66.93
2022-12-14T22:00:11.699Z,76.68
2022-12-14T22:02:41.650Z,66.10
2022-12-14T22:05:11.169Z,71.78
2022-12-14T22:07:39.193Z,71.15
2022-12-14T22:10:09.421Z,74.90
2022-12-14T22:12:37.583Z,76.68
2022-12-14T22:15:05.856Z,66.13
2022-12-14T22:17:34.002Z,61.75
2022-12-14T22:20:03.979Z,61.28
2022-12-14T22:22:31.862Z,46.95
2022-12-14T22:25:03.060Z,52.33
2022-12-14T22:27:32.288Z,45.00
2022-12-14T22:30:00.489Z,52.17
2022-12-14T22:32:28.484Z,52.60
2022-12-14T22:34:56.882Z,46.33
2022-12-14T22:37:24.856Z,44.35
2022-12-14T22:39:53.206Z,49.25
2022-12-14T22:42:21.089Z,46.63
2022-12-14T22:44:51.115Z,42.08
2022-12-14T22:47:19.100Z,43.28
2022-12-14T22:49:47.165Z,52.70
2022-12-14T22:52:18.601Z,50.10
2022-12-14T22:54:51.194Z,45.95
2022-12-14T22:57:20.751Z,46.80
2022-12-14T22:59:55.158Z,48.17
2022-12-14T23:02:24.291Z,50.22
2022-12-14T23:04:52.921Z,41.63
2022-12-14T23:07:21.066Z,42.97
2022-12-14T23:10:06.773Z,46.55
2022-12-14T23:12:52.031Z,51.08
2022-12-14T23:15:39.207Z,42.78
2022-12-14T23:18:26.492Z,45.30
2022-12-14T23:21:12.874Z,46.25
2022-12-14T23:23:58.891Z,39.20
2022-12-14T23:26:45.455Z,42.22
2022-12-14T23:29:31.325Z,40.20
2022-12-14T23:32:18.901Z,44.95
2022-12-14T23:35:04.128Z,45.47
2022-12-14T23:37:49.546Z,48.83
2022-12-14T23:43:26.836Z,42.85
2022-12-14T23:46:12.467Z,42.45
2022-12-14T23:48:59.998Z,37.88
2022-12-14T23:51:45.305Z,39.80
2022-12-14T23:54:31.569Z,37.80
2022-12-14T23:57:16.658Z,42.00
